x

Cape Suckling - 35 Nm Se Of Kayak Is, Ak (46082) Wave Buoy

8:50pm - Wed 13th Dec 2017 All times are AKST. -9 hours from GMT.

  • Sig Wave height 11.8ft
  • Swell Direction
  • Peak Period 11s
  • Average Period 8s
  • Wind
    18mph, 22mph gusts
  • Sea Temp 46°f
  • Air Temp 43°f
  • Sea Pressure 1005.1mb
  • Cape Suckling - 35 Nm Se Of Kayak Is, Ak
  • Cape Suckling - 35 Nm Se Of Kayak Is, Ak

More Historic Weather Station data

Upgrade to MSW Pro to gain access to the past 30 days of data for over 8000 Wavebouys and Weather Stations around the globe.

Join

Comparision Forecast

View Surf forecast
   
Wed 12/13 8:50pm 12ft 11s 8s 18 22 mph 1005.1mb 46f 43f
7:50pm 13ft 10s 8s 16 20 mph 1006.5mb 46f 43f
6:50pm 13ft 10s 8s 9 11 mph 1007.6mb 46f 43f
5:50pm 13.5ft 10s 8s 9 11 mph 1007.9mb 46f 43f
4:50pm 12.5ft 11s 8s 9 11 mph 1008.3mb 46f 43f
3:50pm 14ft 11s 8s 7 9 mph 1007.7mb 46f 42f
2:50pm 13ft 10s 8s 7 9 mph 1008.2mb 46f 43f
1:50pm 14ft 10s 8s 9 11 mph 1008.3mb 46f 43f
12:50pm 16ft 11s 8s 11 13 mph 1008.1mb 46f 43f
11:50am 16.5ft 10s 8s 11 16 mph 1007.8mb 46f 43f
10:50am 15.5ft 11s 8s 18 22 mph 1007.7mb 46f 43f
9:50am 16ft 11s 8s 22 29 mph 1007.4mb 46f 43f
8:50am 17.5ft 10s 8s 27 34 mph 1007.4mb 46f 43f
7:50am 17.5ft 10s 8s 31 38 mph 1007.1mb 46f 43f
6:50am 18ft 11s 8s 31 38 mph 1006.9mb 46f 42f
5:50am 17.5ft 8s 8s 38 47 mph 1007.3mb 46f 42f
4:50am 16.5ft 12s 7s 38 49 mph 1008.1mb 46f 42f
3:50am 15ft 14s 7s 38 49 mph 1009.2mb 45f 42f
2:50am 13ft 14s 7s 38 49 mph 1010.9mb 45f 42f
1:50am 12.5ft 11s 7s 34 43 mph 1012.5mb 45f 43f
12:50am 12ft 11s 7s 27 34 mph 1014.1mb 45f 43f
Tue 12/12 11:50pm 12ft 11s 7s 27 34 mph 1014.9mb 45f 43f
10:50pm 11.5ft 11s 7s 27 31 mph 1015.5mb 45f 42f
9:50pm 10ft 11s 7s 27 34 mph 1016.2mb 45f 43f
8:50pm 10.5ft 11s 7s 25 31 mph 1016.8mb 45f 42f
7:50pm 11.5ft 11s 7s 25 34 mph 1017.9mb 45f 42f
6:50pm 11ft 11s 7s 22 27 mph 1018.2mb 45f 41f
5:50pm 11ft 11s 7s 27 31 mph 1018.4mb 45f 41f
4:50pm 11ft 11s 7s 25 31 mph 1018.4mb 46f 42f
3:50pm 12ft 11s 7s 22 27 mph 1018.3mb 46f 42f
2:50pm 11ft 11s 7s 20 22 mph 1018.2mb 46f 42f
1:50pm 12ft 10s 7s 22 27 mph 1017.5mb 46f 41f
12:50pm 12.5ft 12s 7s 22 29 mph 1017mb 45f 40f
11:50am 11.5ft 11s 7s 22 27 mph 1016.5mb 45f 40f
10:50am 9ft 13s 7s 20 27 mph 1015.9mb 45f 41f
9:50am 10ft 11s 7s 20 25 mph 1015.5mb 45f 42f
8:50am 11ft 12s 8s 20 25 mph 1014.3mb 45f 43f
7:50am 10.5ft 13s 7s 20 25 mph 1013mb 45f 42f
6:50am 11ft 13s 8s 18 25 mph 1012.2mb 45f 42f
5:50am 11ft 13s 8s 20 25 mph 1011.5mb 45f 42f
4:50am 10.5ft 11s 7s 20 25 mph 1011mb 45f 42f
3:50am 13ft 12s 8s 18 22 mph 1010.4mb 45f 42f
2:50am 12ft 13s 8s 18 22 mph 1010.7mb 45f 42f
1:50am 13.5ft 13s 9s 18 22 mph 1010.9mb 45f 42f
12:50am 13ft 13s 8s 18 22 mph 1010.8mb 45f 42f
Mon 12/11 11:50pm 12.5ft 12s 8s 18 20 mph 1010.9mb 45f 42f
10:50pm 13.5ft 14s 9s 18 22 mph 1011mb 45f 42f
9:50pm 13.5ft 11s 9s 18 22 mph 1010.5mb 45f 42f
8:50pm 17.5ft 14s 9s 18 22 mph 1010.5mb 45f 42f
7:50pm 15ft 13s 9s 18 20 mph 1010.9mb 45f 42f
6:50pm 16.5ft 14s 10s 16 20 mph 1011.4mb 45f 43f
5:50pm 15ft 14s 9s 18 22 mph 1011.2mb 45f 43f
4:50pm 16ft 14s 10s 16 22 mph 1011.6mb 45f 43f
3:50pm 15.5ft 11s 9s 16 20 mph 1011.9mb 45f 43f
2:50pm 17.5ft 14s 9s 13 18 mph 1013mb 45f 43f
1:50pm 18.5ft 15s 10s 16 20 mph 1012.8mb 45f 43f
12:50pm 20.5ft 14s 10s 13 18 mph 1012.3mb 45f 43f
11:50am 19.5ft 14s 10s 16 20 mph 1012mb 45f 43f
10:50am 22ft 15s 10s 11 16 mph 1011.6mb 45f 44f
9:50am 23.5ft 14s 10s 16 20 mph 1010.4mb 45f 44f
8:50am 20.5ft 13s 10s 16 22 mph 1008.8mb 45f 44f
7:50am 22.5ft 14s 10s 16 20 mph 1007mb 45f 43f
6:50am 19.5ft 14s 9s 18 22 mph 1005.2mb 45f 44f
5:50am 24ft 14s 10s 20 25 mph 1003.2mb 45f 44f
4:50am 22.5ft 13s 10s 25 34 mph 1001.3mb 46f 43f
3:50am 21ft 13s 9s 22 27 mph 1000.2mb 46f 43f
2:50am 25ft 13s 10s 25 29 mph 998.6mb 46f 43f
1:50am 23.5ft 12s 9s 25 31 mph 996.6mb 46f 42f
12:50am 24.5ft 13s 9s 38 47 mph 993.8mb 46f 43f
Sun 12/10 11:50pm 21.5ft 12s 9s 36 47 mph 992.1mb 46f 44f
10:50pm 22.5ft 11s 9s 38 51 mph 991.7mb 46f 43f
9:50pm 21.5ft 11s 8s 43 51 mph 990.8mb 45f 43f
8:50pm 18.5ft 11s 8s 45 58 mph 990.7mb 45f 43f
7:50pm 18.5ft 10s 8s 43 54 mph 992.2mb 45f 43f
6:50pm 19ft 9s 8s 43 54 mph 993.8mb 45f 42f
5:50pm 16.5ft 11s 7s 45 58 mph 995.3mb 45f 42f
4:50pm 15.5ft 10s 7s 43 54 mph 998.1mb 45f 43f
3:50pm 15ft 8s 7s 40 49 mph 1000.5mb 45f 42f
2:50pm 14.5ft 7s 7s 36 45 mph 1004.7mb 45f 42f
1:50pm 12.5ft 11s 7s 31 40 mph 1007.9mb 45f 41f
12:50pm 12ft 11s 7s 29 36 mph 1010.4mb 45f 42f
11:50am 12.5ft 11s 7s 29 38 mph 1012mb 45f 43f
10:50am 11ft 9s 7s 25 31 mph 1012.9mb 45f 43f
9:50am 11.5ft 10s 7s 22 29 mph 1013.8mb 45f 43f
8:50am 12.5ft 11s 7s 22 27 mph 1014.1mb 45f 43f
7:50am 12ft 10s 8s 20 25 mph 1013.7mb 45f 42f
6:50am 13ft 10s 7s 16 20 mph 1014mb 45f 43f